Alpine Trader — 9HVW9 — position and weather

sailwx.info

Track history (hours):
 
Tides and Currents Weather Stations Pressure Air Temp Water Temp Dewpoint Dewpoint Depression Visibility Wind Speed Wind Dir Waves Ship Positions

Alpine Trader

Last reported at 2014-Nov-20 19:22 UTC. Time now 2014-Nov-27 22:00 UTC.
Position N 22°50' E 119°54'.

Length 190 m; draft 12.6 m.

Type: Cargo ship. MMSI: 249874000.

Date/timePositionNaut miles runAvg speedWind from/ knotsBaromVisibWave heightAir tempDewpointWater temp
2014-Nov-20 19:22N 22°50' E 119°54'910.5
2014-Nov-20 18:32N 22°41' E 119°54'1010.0
2014-Nov-20 17:33N 22°31' E 119°54'10 9.9
2014-Nov-20 16:30N 22°21' E 119°54'  
2014-Nov-12 12:28N 01°17' E 104°19'1312.0
2014-Nov-12 11:25N 01°15' E 104°06'7 5.7
2014-Nov-12 10:16N 01°18' E 103°60'0 0.1
2014-Nov-12 09:30N 01°18' E 103°60'0 0.0
2014-Nov-12 08:30N 01°18' E 103°60'0 0.0
2014-Nov-12 07:27N 01°17' E 103°60'0 0.1
2014-Nov-12 06:27N 01°17' E 103°60'0 0.1
2014-Nov-12 03:12N 01°17' E 103°60'0 0.0
2014-Nov-12 02:32N 01°17' E 103°60'0 0.0
2014-Nov-12 01:33N 01°17' E 103°60'0 0.0
2014-Nov-12 00:33N 01°17' E 103°60'0 0.1
2014-Nov-11 23:33N 01°18' E 103°60'0 0.1
2014-Nov-11 22:31N 01°17' E 103°60'3 3.1
2014-Nov-11 21:33N 01°15' E 103°58'5 4.4
2014-Nov-11 20:29N 01°13' E 103°54'  
Track history (hours):
 
Tides and Currents Weather Stations Pressure Air Temp Water Temp Dewpoint Dewpoint Depression Visibility Wind Speed Wind Dir Waves Ship Positions

Alpine Trader

Last reported at 2014-Nov-20 19:22 UTC. Time now 2014-Nov-27 22:00 UTC.
Position N 22°50' E 119°54'.

Length 190 m; draft 12.6 m.

Type: Cargo ship. MMSI: 249874000.

Date/timePositionNaut miles runAvg speedWind from/ knotsBaromVisibWave heightAir tempDewpointWater temp
2014-Nov-20 19:22N 22°50' E 119°54'910.5
2014-Nov-20 18:32N 22°41' E 119°54'1010.0
2014-Nov-20 17:33N 22°31' E 119°54'10 9.9
2014-Nov-20 16:30N 22°21' E 119°54'  
2014-Nov-12 12:28N 01°17' E 104°19'1312.0
2014-Nov-12 11:25N 01°15' E 104°06'7 5.7
2014-Nov-12 10:16N 01°18' E 103°60'0 0.1
2014-Nov-12 09:30N 01°18' E 103°60'0 0.0
2014-Nov-12 08:30N 01°18' E 103°60'0 0.0
2014-Nov-12 07:27N 01°17' E 103°60'0 0.1
2014-Nov-12 06:27N 01°17' E 103°60'0 0.1
2014-Nov-12 03:12N 01°17' E 103°60'0 0.0
2014-Nov-12 02:32N 01°17' E 103°60'0 0.0
2014-Nov-12 01:33N 01°17' E 103°60'0 0.0
2014-Nov-12 00:33N 01°17' E 103°60'0 0.1
2014-Nov-11 23:33N 01°18' E 103°60'0 0.1
2014-Nov-11 22:31N 01°17' E 103°60'3 3.1
2014-Nov-11 21:33N 01°15' E 103°58'5 4.4
2014-Nov-11 20:29N 01°13' E 103°54'  

Dump ship's entire track history